Time;durP1;ratioP1;P1;durP2;ratioP2;P2;SDS_P1;SDS_P2;PMS_P1;PMS_P2;Temp;Humidity;BMP_temperature;BMP_pressure;BME280_temperature;BME280_humidity;BME280_pressure;Samples;Min_cycle;Max_cycle;Signal;HPM_P1;HPM_P2
2021/05/06 00:32:12;;;;;;;6.25;2.28;;;16.10;99.90;;;;;;6338303;22;20018;-83
2021/05/06 00:34:03;;;;;;;6.72;2.60;;;16.00;99.90;;;;;;6317237;22;20006;-83
2021/05/06 00:36:31;;;;;;;8.27;3.25;;;15.90;99.90;;;;;;6338302;22;20388;-83
2021/05/06 00:39:02;;;;;;;10.80;2.50;;;15.90;99.90;;;;;;6338149;22;20010;-83
2021/05/06 01:04:34;;;;;;;7.18;2.63;;;16.20;99.90;;;;;;6312380;22;20060;-82
2021/05/06 01:09:52;;;;;;;5.32;2.58;;;16.20;99.90;;;;;;6312217;22;20429;-82
2021/05/06 01:12:18;;;;;;;9.63;2.75;;;16.20;99.90;;;;;;6312146;22;19999;-77
2021/05/06 01:14:45;;;;;;;6.32;2.60;;;16.20;99.90;;;;;;6312220;22;20021;-76
2021/05/06 01:17:11;;;;;;;9.15;2.90;;;16.20;99.90;;;;;;6312285;22;19998;-82
2021/05/06 01:19:37;;;;;;;6.43;2.05;;;16.20;99.90;;;;;;6312168;22;20010;-83
2021/05/06 01:22:04;;;;;;;7.55;2.75;;;16.20;99.90;;;;;;6339833;22;20082;-82
2021/05/06 01:24:31;;;;;;;3.50;2.40;;;16.10;99.90;;;;;;6339913;22;20437;-80
2021/05/06 01:29:59;;;;;;;10.07;2.47;;;16.10;99.90;;;;;;6316521;22;20490;-83
2021/05/06 01:32:30;;;;;;;6.07;2.95;;;15.90;99.90;;;;;;6339626;22;20144;-82
2021/05/06 01:35:00;;;;;;;7.82;2.00;;;16.00;99.90;;;;;;6339530;22;20003;-82
2021/05/06 01:37:35;;;;;;;7.20;2.90;;;16.00;99.90;;;;;;6339980;22;20006;-82
2021/05/06 01:42:53;;;;;;;8.25;2.90;;;16.20;99.90;;;;;;6339717;22;20015;-76
2021/05/06 01:58:44;;;;;;;8.90;3.15;;;16.40;99.90;;;;;;6311983;22;20318;-82
2021/05/06 02:01:10;;;;;;;3.83;1.90;;;16.40;99.90;;;;;;6306556;22;20091;-79
2021/05/06 02:03:36;;;;;;;9.15;3.10;;;16.40;99.90;;;;;;6307001;22;20018;-77
2021/05/06 02:06:03;;;;;;;6.07;2.80;;;16.40;99.90;;;;;;6306921;22;19999;-81
2021/05/06 02:08:30;;;;;;;6.63;2.13;;;16.40;99.90;;;;;;6305938;22;20077;-83
2021/05/06 02:11:06;;;;;;;9.82;2.38;;;16.40;99.90;;;;;;6306488;22;20003;-77
2021/05/06 02:13:47;;;;;;;8.68;2.70;;;16.40;99.90;;;;;;6306625;22;20004;-81
2021/05/06 02:16:19;;;;;;;5.53;2.72;;;16.40;99.90;;;;;;6306461;22;20003;-82
2021/05/06 02:18:46;;;;;;;6.78;2.50;;;16.40;99.90;;;;;;6308123;22;20329;-77
2021/05/06 02:21:17;;;;;;;5.68;2.75;;;16.40;99.90;;;;;;6306385;22;20319;-83
2021/05/06 02:23:44;;;;;;;8.80;2.83;;;16.40;99.90;;;;;;6306449;22;20018;-79
2021/05/06 02:26:11;;;;;;;6.68;2.03;;;16.40;99.90;;;;;;6306322;22;20000;-77
2021/05/06 02:28:37;;;;;;;8.00;2.95;;;16.30;99.90;;;;;;6306685;22;19999;-83
2021/05/06 02:31:03;;;;;;;6.33;2.23;;;16.30;99.90;;;;;;6308086;22;20002;-82
2021/05/06 02:33:29;;;;;;;5.30;2.38;;;16.30;99.90;;;;;;6307926;22;20225;-80
2021/05/06 02:35:54;;;;;;;15.88;2.47;;;16.30;99.90;;;;;;6308104;22;20006;-81
2021/05/06 02:38:20;;;;;;;7.47;2.72;;;16.20;99.90;;;;;;6309235;22;20007;-82
2021/05/06 02:40:46;;;;;;;6.60;2.10;;;16.20;99.90;;;;;;6322058;22;20061;-77
2021/05/06 02:43:12;;;;;;;5.25;2.67;;;16.20;99.90;;;;;;6307848;22;20249;-77
2021/05/06 02:45:38;;;;;;;6.85;2.80;;;16.20;99.90;;;;;;6308075;22;20109;-82
2021/05/06 02:48:05;;;;;;;4.70;2.58;;;16.20;99.90;;;;;;6307787;22;20003;-82
2021/05/06 02:50:31;;;;;;;8.85;2.75;;;16.20;99.90;;;;;;6307812;22;20010;-83
2021/05/06 02:55:46;;;;;;;6.20;2.10;;;16.20;99.90;;;;;;6307923;22;20007;-83
2021/05/06 03:03:22;;;;;;;7.93;2.95;;;16.10;99.90;;;;;;6338653;22;20014;-79
2021/05/06 03:05:53;;;;;;;7.43;2.42;;;16.10;99.90;;;;;;6338902;22;20074;-82
2021/05/06 03:08:25;;;;;;;6.32;3.03;;;16.10;99.90;;;;;;6338927;22;20026;-77
2021/05/06 03:24:49;;;;;;;4.93;2.42;;;16.00;99.90;;;;;;6338780;22;20003;-77
2021/05/06 03:27:16;;;;;;;6.65;2.03;;;16.00;99.90;;;;;;6338531;22;20452;-80
2021/05/06 03:29:58;;;;;;;7.10;3.90;;;16.00;99.90;;;;;;6338602;22;20029;-77
2021/05/06 03:32:49;;;;;;;5.65;2.30;;;16.10;99.90;;;;;;6338417;22;20449;-77
2021/05/06 04:18:26;;;;;;;5.65;2.67;;;16.10;99.90;;;;;;6338259;22;20048;-83
2021/05/06 04:26:33;;;;;;;6.78;2.35;;;16.00;99.90;;;;;;6338076;22;20416;-82
2021/05/06 04:36:57;;;;;;;4.43;2.58;;;16.10;99.90;;;;;;6338133;22;20003;-83
2021/05/06 04:39:33;;;;;;;4.75;2.55;;;16.10;99.90;;;;;;6339564;22;19995;-81
2021/05/06 04:43:08;;;;;;;11.73;2.90;;;16.10;99.90;;;;;;6338928;22;20014;-83
2021/05/06 04:55:30;;;;;;;7.70;2.67;;;16.30;99.90;;;;;;6310105;22;20132;-77
2021/05/06 05:05:58;;;;;;;14.43;4.32;;;16.40;99.90;;;;;;6296470;22;20395;-83
2021/05/06 05:08:25;;;;;;;8.75;3.42;;;16.40;99.90;;;;;;6310113;22;20451;-82
2021/05/06 05:27:13;;;;;;;7.40;2.50;;;16.60;99.90;;;;;;6338076;22;20033;-77
2021/05/06 05:29:39;;;;;;;5.65;2.67;;;16.70;99.90;;;;;;6338116;22;20417;-80
2021/05/06 05:32:05;;;;;;;9.00;3.30;;;16.70;99.90;;;;;;6337866;22;20006;-78
2021/05/06 05:34:39;;;;;;;6.07;2.80;;;16.80;99.90;;;;;;6337985;22;20002;-77
2021/05/06 05:37:05;;;;;;;6.85;3.25;;;16.90;99.90;;;;;;6310531;22;20007;-77
2021/05/06 05:55:44;;;;;;;4.53;3.08;;;17.20;99.90;;;;;;6339419;22;20003;-77
2021/05/06 05:58:10;;;;;;;9.68;3.15;;;17.20;99.90;;;;;;6339608;22;20056;-82
2021/05/06 06:00:36;;;;;;;4.68;2.63;;;17.20;99.90;;;;;;6339308;22;20042;-82
2021/05/06 06:03:02;;;;;;;8.68;2.55;;;17.30;99.90;;;;;;6339271;22;20017;-77
2021/05/06 06:05:28;;;;;;;5.90;2.73;;;17.30;99.90;;;;;;6339255;22;20010;-83
2021/05/06 06:07:54;;;;;;;6.57;2.58;;;17.40;99.90;;;;;;6339282;22;20082;-83
2021/05/06 06:10:20;;;;;;;6.50;2.80;;;17.50;99.90;;;;;;6339319;22;20002;-77
2021/05/06 06:12:46;;;;;;;7.25;3.22;;;17.50;99.90;;;;;;6339789;22;20007;-83
2021/05/06 06:18:09;;;;;;;7.18;2.97;;;17.60;99.90;;;;;;6355398;22;19987;-83
2021/05/06 06:20:36;;;;;;;4.13;2.42;;;17.70;99.90;;;;;;6313666;22;20150;-83
2021/05/06 06:23:02;;;;;;;9.05;2.00;;;17.70;99.90;;;;;;6339526;22;20009;-83
2021/05/06 06:25:28;;;;;;;7.38;2.38;;;17.80;99.90;;;;;;6339585;22;20003;-83
2021/05/06 06:27:54;;;;;;;4.20;2.40;;;17.80;99.90;;;;;;6339857;22;20007;-84
2021/05/06 06:30:20;;;;;;;3.50;2.10;;;17.90;99.90;;;;;;6339389;22;20687;-83
2021/05/06 06:32:46;;;;;;;3.35;1.88;;;18.00;99.90;;;;;;6339824;22;20378;-84
2021/05/06 06:35:12;;;;;;;5.63;2.33;;;18.00;99.90;;;;;;6339609;22;20023;-81
2021/05/06 06:37:38;;;;;;;6.85;2.83;;;18.10;99.90;;;;;;6339707;22;20733;-83
2021/05/06 06:40:05;;;;;;;4.33;2.00;;;18.10;99.90;;;;;;6339377;22;19995;-84
2021/05/06 06:42:31;;;;;;;3.83;2.00;;;18.10;99.90;;;;;;6339469;22;20098;-84
2021/05/06 06:44:57;;;;;;;2.17;1.73;;;18.10;99.90;;;;;;6339504;22;20030;-83
2021/05/06 06:47:22;;;;;;;3.60;2.43;;;18.20;99.90;;;;;;6339679;22;20241;-84
2021/05/06 06:49:48;;;;;;;4.77;2.10;;;18.30;99.90;;;;;;6339844;22;20290;-84
2021/05/06 06:52:14;;;;;;;6.30;2.40;;;18.30;99.90;;;;;;6339262;22;20221;-84
2021/05/06 06:54:40;;;;;;;5.03;2.40;;;18.30;99.80;;;;;;6338916;22;20224;-84
2021/05/06 06:57:08;;;;;;;6.18;2.35;;;18.40;99.70;;;;;;6339479;22;20026;-84
2021/05/06 06:59:34;;;;;;;5.45;1.80;;;18.50;99.90;;;;;;6339629;22;19997;-83
2021/05/06 07:02:01;;;;;;;2.78;1.40;;;18.50;98.90;;;;;;6338992;22;20457;-77
2021/05/06 07:04:28;;;;;;;3.30;1.35;;;18.50;98.00;;;;;;6338854;22;19999;-83
2021/05/06 07:06:54;;;;;;;6.72;1.60;;;18.50;98.20;;;;;;6339025;22;20003;-84
2021/05/06 07:09:20;;;;;;;4.50;1.92;;;18.60;98.80;;;;;;6338983;22;20022;-80
2021/05/06 07:11:46;;;;;;;2.53;1.80;;;18.60;98.90;;;;;;6338901;22;19999;-82
2021/05/06 07:14:12;;;;;;;2.50;1.58;;;18.70;97.80;;;;;;6340378;22;20171;-85
2021/05/06 07:16:38;;;;;;;8.37;1.70;;;18.70;98.50;;;;;;6339759;22;20425;-77
2021/05/06 07:19:05;;;;;;;3.03;1.33;;;18.80;98.20;;;;;;6339930;22;20006;-84
2021/05/06 07:21:31;;;;;;;2.30;1.55;;;18.80;97.40;;;;;;6340103;22;20002;-84
2021/05/06 07:23:57;;;;;;;2.53;1.15;;;18.90;96.10;;;;;;6340284;22;19998;-83
2021/05/06 07:26:25;;;;;;;4.80;1.70;;;18.90;96.60;;;;;;6340116;22;20021;-84
2021/05/06 07:28:53;;;;;;;4.13;1.83;;;19.00;97.00;;;;;;6343797;22;20069;-82
2021/05/06 07:31:20;;;;;;;2.67;1.27;;;19.10;96.50;;;;;;6357456;22;20046;-83
2021/05/06 07:33:49;;;;;;;2.28;1.30;;;19.20;96.60;;;;;;6340514;22;20013;-83
2021/05/06 07:36:17;;;;;;;3.58;1.67;;;19.20;95.00;;;;;;6339850;22;20022;-83
2021/05/06 07:38:44;;;;;;;2.17;1.20;;;19.30;95.30;;;;;;6339958;22;20003;-83
2021/05/06 07:41:12;;;;;;;1.73;1.40;;;19.40;95.90;;;;;;6311962;22;20329;-84
2021/05/06 07:43:42;;;;;;;3.38;1.25;;;19.50;96.00;;;;;;6339641;22;20014;-85
2021/05/06 07:46:08;;;;;;;3.15;1.83;;;19.60;93.90;;;;;;6339509;22;20044;-84
2021/05/06 07:48:35;;;;;;;5.00;1.40;;;19.70;93.90;;;;;;6339738;22;20010;-83
2021/05/06 07:51:02;;;;;;;1.95;1.40;;;19.70;94.30;;;;;;6340249;22;19999;-84
2021/05/06 07:53:43;;;;;;;3.78;1.75;;;19.80;94.00;;;;;;6339624;22;20329;-82
2021/05/06 07:56:09;;;;;;;2.70;1.40;;;19.80;93.50;;;;;;6339385;22;20003;-82
2021/05/06 07:58:35;;;;;;;6.50;1.60;;;19.90;94.30;;;;;;6340142;22;20079;-84
2021/05/06 08:01:01;;;;;;;2.28;1.30;;;20.00;93.90;;;;;;6339752;22;20452;-84
2021/05/06 08:03:27;;;;;;;2.97;1.30;;;20.00;93.60;;;;;;6338431;22;20011;-84
2021/05/06 08:05:57;;;;;;;1.67;1.20;;;20.00;94.10;;;;;;6338651;22;20588;-84
2021/05/06 08:08:27;;;;;;;3.47;1.10;;;20.10;94.00;;;;;;6338511;22;20002;-84
2021/05/06 08:10:56;;;;;;;1.23;1.00;;;20.10;93.20;;;;;;6338425;22;20075;-77
2021/05/06 08:13:24;;;;;;;2.15;1.20;;;20.20;93.30;;;;;;6338843;22;20321;-83
2021/05/06 08:15:50;;;;;;;1.60;1.20;;;20.20;92.30;;;;;;6338686;22;20429;-79
2021/05/06 08:18:16;;;;;;;4.32;1.27;;;20.30;92.50;;;;;;6338523;22;20010;-84
2021/05/06 08:20:42;;;;;;;0.98;0.85;;;20.40;92.00;;;;;;6339337;22;20003;-84
2021/05/06 08:23:11;;;;;;;2.40;1.17;;;20.60;91.60;;;;;;6338671;22;20018;-83
2021/05/06 08:25:38;;;;;;;2.20;1.17;;;20.60;91.20;;;;;;6338700;22;20006;-80
2021/05/06 08:28:05;;;;;;;3.50;1.10;;;20.70;91.40;;;;;;6339037;22;20036;-83
2021/05/06 08:30:33;;;;;;;4.95;1.20;;;20.70;90.80;;;;;;6338672;22;19995;-83
2021/05/06 08:32:59;;;;;;;1.77;1.10;;;20.80;90.40;;;;;;6311267;22;20002;-84
2021/05/06 08:35:25;;;;;;;2.05;0.85;;;20.90;90.20;;;;;;6338877;22;20026;-84
2021/05/06 08:37:51;;;;;;;2.95;1.00;;;21.10;89.80;;;;;;6338827;22;20425;-83
2021/05/06 08:40:16;;;;;;;3.87;1.60;;;21.20;90.80;;;;;;6339328;22;19999;-82
2021/05/06 08:42:42;;;;;;;1.00;0.77;;;21.10;89.20;;;;;;6324446;22;20272;-81
2021/05/06 08:45:09;;;;;;;2.65;1.00;;;21.20;88.80;;;;;;6348316;22;20417;-84
2021/05/06 08:47:37;;;;;;;4.38;0.98;;;21.30;88.20;;;;;;6339531;22;20457;-85
2021/05/06 08:50:03;;;;;;;3.35;0.88;;;21.40;87.90;;;;;;6311397;22;20310;-83
2021/05/06 08:52:29;;;;;;;3.13;1.38;;;21.50;89.30;;;;;;6310825;22;20013;-80
2021/05/06 08:54:57;;;;;;;1.38;1.00;;;21.60;87.70;;;;;;6338805;22;20404;-83
2021/05/06 08:57:24;;;;;;;5.13;1.20;;;21.60;86.50;;;;;;6338672;22;20030;-83
2021/05/06 08:59:52;;;;;;;1.85;1.45;;;21.60;87.40;;;;;;6338111;22;20027;-83
2021/05/06 09:02:19;;;;;;;3.40;1.10;;;21.70;87.30;;;;;;6338438;22;20018;-77
2021/05/06 09:04:45;;;;;;;1.23;1.08;;;21.80;86.20;;;;;;6338343;22;20045;-83
2021/05/06 09:07:11;;;;;;;2.20;1.17;;;21.70;86.50;;;;;;6338346;22;20003;-82
2021/05/06 09:09:51;;;;;;;1.58;0.98;;;21.70;86.20;;;;;;6338024;22;20127;-83
2021/05/06 09:12:34;;;;;;;1.67;1.13;;;21.60;86.80;;;;;;6338035;22;20010;-83
2021/05/06 09:15:09;;;;;;;1.67;0.90;;;21.80;85.20;;;;;;6337850;22;20026;-83
2021/05/06 09:17:35;;;;;;;2.05;1.13;;;21.90;85.30;;;;;;6338600;22;20440;-84
2021/05/06 09:20:10;;;;;;;1.25;0.80;;;21.90;84.60;;;;;;6339870;22;20106;-83
2021/05/06 09:22:40;;;;;;;3.90;1.10;;;22.00;84.50;;;;;;6339809;22;20079;-84
2021/05/06 09:25:28;;;;;;;1.55;1.30;;;22.20;84.00;;;;;;6339776;22;20429;-82
2021/05/06 09:28:19;;;;;;;5.80;1.30;;;22.20;83.10;;;;;;6339750;22;20330;-83
2021/05/06 09:30:51;;;;;;;1.20;1.10;;;22.40;83.00;;;;;;6339976;22;20007;-84
2021/05/06 09:33:26;;;;;;;0.93;0.75;;;22.40;83.30;;;;;;6312125;22;20060;-80
2021/05/06 09:35:52;;;;;;;1.15;0.77;;;22.30;83.40;;;;;;6339713;22;19999;-84
2021/05/06 09:38:30;;;;;;;1.63;1.13;;;22.40;84.90;;;;;;6339819;22;20444;-83
2021/05/06 09:41:02;;;;;;;1.45;1.13;;;22.50;83.80;;;;;;6340385;22;20006;-82
2021/05/06 09:43:34;;;;;;;7.38;1.17;;;22.50;82.80;;;;;;6340054;22;20310;-80
2021/05/06 09:46:01;;;;;;;1.83;1.23;;;22.70;83.70;;;;;;6340151;22;20073;-79
2021/05/06 09:48:28;;;;;;;0.75;0.75;;;22.90;82.20;;;;;;6312677;22;20056;-83
2021/05/06 09:51:01;;;;;;;3.53;1.38;;;22.80;81.70;;;;;;6339966;22;20302;-83
2021/05/06 09:53:31;;;;;;;1.92;1.00;;;22.80;82.10;;;;;;6342965;22;20005;-79
2021/05/06 09:56:03;;;;;;;1.60;1.00;;;23.00;81.10;;;;;;6356866;22;20010;-78
2021/05/06 09:58:31;;;;;;;3.28;1.00;;;22.90;80.80;;;;;;6340461;22;20017;-80
2021/05/06 10:01:07;;;;;;;3.17;0.90;;;23.00;82.10;;;;;;6339912;22;20019;-84
2021/05/06 10:03:34;;;;;;;3.40;0.90;;;23.40;81.80;;;;;;6339353;22;20011;-84
2021/05/06 10:06:20;;;;;;;3.95;1.48;;;23.60;82.20;;;;;;6339474;22;20021;-84
2021/05/06 10:08:47;;;;;;;1.40;1.10;;;24.00;80.30;;;;;;6339374;22;20056;-83
2021/05/06 10:11:17;;;;;;;2.60;1.23;;;24.10;79.00;;;;;;6339681;22;19999;-84
2021/05/06 10:13:45;;;;;;;1.95;1.17;;;24.30;77.90;;;;;;6339540;22;20374;-80
2021/05/06 10:16:13;;;;;;;3.47;1.50;;;24.50;79.10;;;;;;6339219;22;20003;-83
2021/05/06 10:18:41;;;;;;;1.92;1.17;;;24.60;77.80;;;;;;6339265;22;20013;-82
2021/05/06 10:21:19;;;;;;;2.00;1.10;;;24.70;77.90;;;;;;6339417;22;20093;-79
2021/05/06 10:23:47;;;;;;;1.98;1.10;;;25.00;77.10;;;;;;6311863;22;20015;-84
2021/05/06 10:26:15;;;;;;;2.45;1.10;;;25.20;76.20;;;;;;6311894;22;20003;-83
2021/05/06 10:28:41;;;;;;;3.22;0.82;;;24.90;75.40;;;;;;6339368;22;20013;-84
2021/05/06 10:31:09;;;;;;;2.67;1.20;;;24.80;75.40;;;;;;6339344;22;19998;-83
2021/05/06 10:33:42;;;;;;;3.80;1.10;;;25.00;75.30;;;;;;6339236;22;20017;-81
2021/05/06 10:36:10;;;;;;;3.85;1.10;;;25.10;75.30;;;;;;6311997;22;20325;-84
2021/05/06 10:38:42;;;;;;;2.20;1.02;;;25.40;74.70;;;;;;6339289;22;20051;-83
2021/05/06 10:41:29;;;;;;;5.13;1.65;;;25.60;74.00;;;;;;6311821;22;20003;-82
2021/05/06 10:44:00;;;;;;;1.45;1.17;;;26.00;73.60;;;;;;6339175;22;20052;-82
2021/05/06 10:47:00;;;;;;;2.05;1.00;;;26.00;74.20;;;;;;6339040;22;20333;-82
2021/05/06 10:49:30;;;;;;;1.27;1.00;;;25.90;71.10;;;;;;6339328;22;20077;-83
2021/05/06 10:52:07;;;;;;;5.25;1.30;;;25.80;73.20;;;;;;6339140;22;20343;-81
2021/05/06 10:54:46;;;;;;;2.17;1.35;;;25.50;72.80;;;;;;6338874;22;20044;-83
2021/05/06 10:57:13;;;;;;;3.35;1.30;;;25.50;73.30;;;;;;6339235;22;20003;-80
2021/05/06 10:59:42;;;;;;;2.38;1.02;;;25.50;72.50;;;;;;6338821;22;19994;-83
2021/05/06 11:02:09;;;;;;;1.85;1.10;;;25.70;72.20;;;;;;6338882;22;20017;-84
2021/05/06 11:04:39;;;;;;;1.55;1.08;;;25.50;72.10;;;;;;6338929;22;20492;-77
2021/05/06 11:07:19;;;;;;;1.30;1.10;;;25.30;72.30;;;;;;6347411;22;20007;-78
2021/05/06 11:09:46;;;;;;;1.10;1.00;;;25.30;73.10;;;;;;6351935;22;20500;-83
2021/05/06 11:12:15;;;;;;;1.58;1.20;;;25.30;71.90;;;;;;6339246;22;20074;-84
2021/05/06 11:14:59;;;;;;;1.73;1.10;;;25.70;72.30;;;;;;6338730;22;20082;-82
2021/05/06 11:17:39;;;;;;;2.38;1.15;;;26.30;70.70;;;;;;6338817;22;20003;-78
2021/05/06 11:20:28;;;;;;;1.48;1.20;;;26.50;70.90;;;;;;6338643;22;20007;-83
2021/05/06 11:23:01;;;;;;;3.47;1.33;;;26.90;69.90;;;;;;6288214;22;20015;-83
2021/05/06 11:25:40;;;;;;;2.47;1.23;;;27.10;67.90;;;;;;6338823;22;19999;-80
2021/05/06 11:28:26;;;;;;;4.63;1.27;;;27.30;68.70;;;;;;6339030;22;21081;-83
2021/05/06 11:30:53;;;;;;;3.65;1.38;;;27.50;67.70;;;;;;6337989;22;20003;-78
2021/05/06 11:33:19;;;;;;;2.17;1.08;;;27.80;66.80;;;;;;6311052;22;20078;-83
2021/05/06 11:36:11;;;;;;;2.78;1.45;;;27.90;67.10;;;;;;6338506;22;20029;-82
2021/05/06 11:38:37;;;;;;;1.73;1.10;;;27.70;66.50;;;;;;6338836;22;20007;-78
2021/05/06 11:41:07;;;;;;;1.85;1.25;;;27.50;66.50;;;;;;6338361;22;20397;-83
2021/05/06 11:43:40;;;;;;;3.05;1.63;;;27.10;66.60;;;;;;6338400;22;20053;-83
2021/05/06 11:46:09;;;;;;;;;;;26.90;68.10;;;;;;6339018;22;20003;-81
2021/05/06 11:48:40;;;;;;;3.30;1.23;;;26.90;68.30;;;;;;6338616;22;20324;-83
2021/05/06 11:51:07;;;;;;;4.40;1.70;;;26.90;69.00;;;;;;6338372;22;20011;-80
2021/05/06 11:53:36;;;;;;;3.35;1.50;;;26.70;69.20;;;;;;6338418;22;19998;-82
2021/05/06 11:56:13;;;;;;;3.50;2.17;;;26.60;69.70;;;;;;6338619;22;20010;-83
2021/05/06 11:58:40;;;;;;;1.80;1.20;;;26.60;71.60;;;;;;6338354;22;20070;-79
2021/05/06 12:01:09;;;;;;;1.98;1.23;;;26.40;71.70;;;;;;6338733;22;20014;-82
2021/05/06 12:03:40;;;;;;;2.60;1.05;;;26.30;71.70;;;;;;6310560;22;20480;-80
2021/05/06 12:06:07;;;;;;;5.88;1.67;;;26.10;71.20;;;;;;6338383;22;20456;-83
2021/05/06 12:08:44;;;;;;;2.22;1.20;;;26.30;71.30;;;;;;6338609;22;20025;-84
2021/05/06 12:11:11;;;;;;;2.63;1.67;;;26.20;70.90;;;;;;6338358;22;20475;-83
2021/05/06 12:13:38;;;;;;;4.10;1.45;;;26.30;71.00;;;;;;6338238;22;19999;-79
2021/05/06 12:16:10;;;;;;;2.75;1.23;;;26.60;71.00;;;;;;6338422;22;20329;-79
2021/05/06 12:18:36;;;;;;;2.17;1.10;;;26.70;70.10;;;;;;6340852;22;20007;-78
2021/05/06 12:21:06;;;;;;;4.30;1.17;;;27.00;70.00;;;;;;6355887;22;20003;-80
2021/05/06 12:23:46;;;;;;;4.28;1.40;;;27.10;69.60;;;;;;6310927;22;20406;-81
2021/05/06 12:26:20;;;;;;;3.45;1.30;;;27.20;69.10;;;;;;6338224;22;19999;-78
2021/05/06 12:28:46;;;;;;;4.85;1.50;;;27.40;68.60;;;;;;6338525;22;20329;-83
2021/05/06 12:31:12;;;;;;;6.28;1.83;;;27.60;67.60;;;;;;6338234;22;20069;-81
2021/05/06 12:33:38;;;;;;;2.80;1.35;;;27.80;67.80;;;;;;6338222;22;20033;-80
2021/05/06 12:36:05;;;;;;;1.37;1.23;;;27.80;66.80;;;;;;6338422;22;20073;-77
2021/05/06 12:38:31;;;;;;;2.65;1.40;;;28.00;67.20;;;;;;6338219;22;20695;-80
2021/05/06 12:41:03;;;;;;;1.50;1.23;;;28.10;67.20;;;;;;6338252;22;19999;-80
2021/05/06 12:43:29;;;;;;;3.28;1.30;;;28.40;66.50;;;;;;6310447;22;20353;-82
2021/05/06 12:46:10;;;;;;;1.75;0.98;;;28.30;65.70;;;;;;6338313;22;20006;-83
2021/05/06 12:48:42;;;;;;;1.13;1.02;;;28.10;66.10;;;;;;6338665;22;20030;-81
2021/05/06 12:51:10;;;;;;;2.20;1.33;;;28.20;66.00;;;;;;6338499;22;20321;-79
2021/05/06 12:53:36;;;;;;;3.75;1.67;;;28.40;65.30;;;;;;6337870;22;20011;-80
2021/05/06 12:56:03;;;;;;;5.13;1.30;;;28.50;64.80;;;;;;6338478;22;20308;-78
2021/05/06 12:58:35;;;;;;;3.33;1.23;;;28.20;64.70;;;;;;6338335;22;20015;-82
2021/05/06 13:01:11;;;;;;;2.42;1.30;;;28.20;65.40;;;;;;6337941;22;20476;-83
2021/05/06 13:03:42;;;;;;;2.83;1.45;;;28.20;65.60;;;;;;6337945;22;20319;-80
2021/05/06 13:06:13;;;;;;;3.60;1.40;;;28.40;66.30;;;;;;6338135;22;19999;-78
2021/05/06 13:08:41;;;;;;;4.65;1.50;;;28.60;66.00;;;;;;6338249;22;20002;-84
2021/05/06 13:11:09;;;;;;;3.80;1.95;;;28.80;66.60;;;;;;6338036;22;20082;-84
2021/05/06 13:13:44;;;;;;;4.13;1.48;;;28.70;67.90;;;;;;6310794;22;20322;-78
2021/05/06 13:16:16;;;;;;;3.10;1.42;;;28.80;68.50;;;;;;6337943;22;20015;-83
2021/05/06 13:18:58;;;;;;;2.05;1.85;;;29.00;68.50;;;;;;6337943;22;20372;-80
2021/05/06 13:21:24;;;;;;;1.70;1.35;;;28.80;68.00;;;;;;6338122;22;19995;-78
2021/05/06 13:23:53;;;;;;;3.70;1.50;;;29.00;67.20;;;;;;6310195;22;20491;-83
2021/05/06 13:26:49;;;;;;;2.38;1.67;;;29.30;67.30;;;;;;6310518;22;20386;-83
2021/05/06 13:29:17;;;;;;;2.03;1.48;;;29.10;68.60;;;;;;6305632;22;20002;-83
2021/05/06 13:31:46;;;;;;;3.90;1.80;;;28.80;69.50;;;;;;6341811;22;20006;-79
2021/05/06 13:34:14;;;;;;;3.40;1.85;;;28.50;71.10;;;;;;6356993;22;20013;-83
2021/05/06 13:36:59;;;;;;;4.25;1.52;;;28.70;71.30;;;;;;6338335;22;20003;-84
2021/05/06 13:39:25;;;;;;;3.90;1.42;;;28.80;71.80;;;;;;6337900;22;20007;-82
2021/05/06 13:41:51;;;;;;;3.88;1.77;;;28.80;71.30;;;;;;6338120;22;20006;-80
2021/05/06 13:44:20;;;;;;;2.40;1.30;;;28.80;71.40;;;;;;6337879;22;20011;-82
2021/05/06 13:46:56;;;;;;;2.28;1.40;;;28.80;70.60;;;;;;6337667;22;20006;-83
2021/05/06 13:49:24;;;;;;;1.95;1.23;;;28.80;69.10;;;;;;6339373;22;20055;-79
2021/05/06 13:51:51;;;;;;;5.57;2.15;;;28.80;67.30;;;;;;6310768;22;20003;-77
2021/05/06 13:54:19;;;;;;;3.03;1.45;;;28.70;68.20;;;;;;6337793;22;20002;-82
2021/05/06 13:56:45;;;;;;;2.15;1.50;;;28.70;68.00;;;;;;6337572;22;19999;-82
2021/05/06 13:59:12;;;;;;;4.38;1.35;;;28.80;68.40;;;;;;6337850;22;20007;-77
2021/05/06 14:01:39;;;;;;;7.85;1.75;;;28.70;71.80;;;;;;6337647;22;20502;-81
2021/05/06 14:04:06;;;;;;;2.08;1.58;;;28.70;71.90;;;;;;6310965;22;20346;-81
2021/05/06 14:06:35;;;;;;;3.60;1.42;;;28.40;71.90;;;;;;6339460;22;20381;-77
2021/05/06 14:09:01;;;;;;;2.65;1.77;;;27.90;73.60;;;;;;6311900;22;20007;-81
2021/05/06 14:11:27;;;;;;;4.70;1.80;;;27.50;74.70;;;;;;6339387;22;19998;-82
2021/05/06 14:13:57;;;;;;;10.10;1.70;;;27.50;75.10;;;;;;6339381;22;20048;-81
2021/05/06 14:16:26;;;;;;;2.72;1.75;;;27.90;73.40;;;;;;6311656;22;20571;-77
2021/05/06 14:18:54;;;;;;;3.72;1.95;;;27.30;73.10;;;;;;6339345;22;20003;-79
2021/05/06 14:21:22;;;;;;;4.32;1.75;;;27.10;73.90;;;;;;6339357;22;20003;-79
2021/05/06 14:23:49;;;;;;;3.72;1.92;;;26.80;74.20;;;;;;6339337;22;20014;-82
2021/05/06 14:26:16;;;;;;;1.42;1.30;;;26.90;74.70;;;;;;6311624;22;20011;-77
2021/05/06 14:28:42;;;;;;;3.53;1.55;;;27.00;74.40;;;;;;6339401;22;20382;-76
2021/05/06 14:31:09;;;;;;;4.32;1.60;;;26.90;74.90;;;;;;6339210;22;19999;-82
2021/05/06 14:33:36;;;;;;;2.90;1.60;;;27.20;73.20;;;;;;6339070;22;20007;-79
2021/05/06 14:36:06;;;;;;;2.60;1.38;;;27.40;72.70;;;;;;6339129;22;19995;-80
2021/05/06 14:38:33;;;;;;;10.30;2.40;;;27.60;72.10;;;;;;6339010;22;20003;-81
2021/05/06 14:40:59;;;;;;;2.65;1.33;;;27.70;72.30;;;;;;6339319;22;20445;-78
2021/05/06 14:43:25;;;;;;;1.85;1.50;;;28.00;71.70;;;;;;6340596;22;20017;-77
2021/05/06 14:45:50;;;;;;;4.23;1.70;;;28.20;71.40;;;;;;6356054;22;20003;-76
2021/05/06 14:48:16;;;;;;;2.27;1.57;;;27.90;70.40;;;;;;6340956;22;20236;-79
2021/05/06 14:50:42;;;;;;;3.22;1.83;;;27.60;70.70;;;;;;6339548;22;19999;-80
2021/05/06 14:53:08;;;;;;;4.07;1.85;;;27.70;70.50;;;;;;6339289;22;20017;-81
2021/05/06 14:55:34;;;;;;;3.97;2.53;;;27.80;70.40;;;;;;6338911;22;20448;-78
2021/05/06 14:58:01;;;;;;;3.53;1.55;;;27.70;71.20;;;;;;6338783;22;20003;-81
2021/05/06 15:00:27;;;;;;;2.70;1.50;;;27.60;70.40;;;;;;6338571;22;20017;-81
2021/05/06 15:02:53;;;;;;;7.17;2.20;;;27.30;70.70;;;;;;6311294;22;20089;-81
2021/05/06 15:05:19;;;;;;;2.00;1.57;;;27.20;71.10;;;;;;6338705;22;20217;-77
2021/05/06 15:07:46;;;;;;;3.38;1.42;;;26.80;71.10;;;;;;6338912;22;20228;-80
2021/05/06 15:10:12;;;;;;;4.72;1.45;;;26.50;71.60;;;;;;6338850;22;20022;-82
2021/05/06 15:12:43;;;;;;;3.58;1.33;;;26.30;71.90;;;;;;6312152;22;20333;-82
2021/05/06 15:15:09;;;;;;;5.80;2.42;;;26.00;72.70;;;;;;6338642;22;20006;-80
2021/05/06 15:17:35;;;;;;;1.90;1.48;;;25.90;73.50;;;;;;6338852;22;19999;-82
2021/05/06 15:20:02;;;;;;;5.45;1.67;;;25.80;74.10;;;;;;6339066;22;20048;-80
2021/05/06 15:22:28;;;;;;;4.63;1.73;;;25.70;73.40;;;;;;6338838;22;20006;-83
2021/05/06 15:24:54;;;;;;;2.05;1.52;;;25.50;73.40;;;;;;6339008;22;20083;-81
2021/05/06 15:27:20;;;;;;;3.90;1.43;;;25.30;73.90;;;;;;6339127;22;19999;-81
2021/05/06 15:29:46;;;;;;;5.72;1.98;;;25.20;74.60;;;;;;6311291;22;20620;-77
2021/05/06 15:32:13;;;;;;;3.97;1.98;;;25.00;74.60;;;;;;6338833;22;20010;-83
2021/05/06 15:34:39;;;;;;;5.22;2.00;;;24.90;74.50;;;;;;6338644;22;20441;-80
2021/05/06 15:37:06;;;;;;;3.40;1.77;;;24.70;75.20;;;;;;6338592;22;20086;-81
2021/05/06 15:39:33;;;;;;;1.75;1.50;;;24.70;75.50;;;;;;6338698;22;20010;-77
2021/05/06 15:41:59;;;;;;;6.03;2.55;;;24.80;75.80;;;;;;6338443;22;20421;-77
2021/05/06 15:44:25;;;;;;;9.48;2.30;;;24.90;75.00;;;;;;6338725;22;20007;-83
2021/05/06 15:46:58;;;;;;;4.82;2.60;;;25.10;75.30;;;;;;6338639;22;20367;-80
2021/05/06 15:49:31;;;;;;;5.47;1.90;;;25.20;74.10;;;;;;6338590;22;19999;-77
2021/05/06 15:51:57;;;;;;;3.80;1.75;;;25.20;74.60;;;;;;6338550;22;20037;-77
2021/05/06 15:54:24;;;;;;;5.75;1.52;;;25.30;74.70;;;;;;6338818;22;20063;-82
2021/05/06 15:56:49;;;;;;;4.78;2.00;;;25.50;75.20;;;;;;6341786;22;20003;-76
2021/05/06 15:59:15;;;;;;;3.67;1.40;;;25.50;74.40;;;;;;6352062;22;20009;-82
2021/05/06 16:01:41;;;;;;;4.00;1.50;;;25.60;73.90;;;;;;6338343;22;20011;-83
2021/05/06 16:04:09;;;;;;;4.85;1.85;;;25.70;73.60;;;;;;6311015;22;20564;-81
2021/05/06 16:06:36;;;;;;;3.50;1.67;;;25.70;73.70;;;;;;6338488;22;20207;-82
2021/05/06 16:09:03;;;;;;;3.50;1.15;;;25.50;73.50;;;;;;6338318;22;20007;-77
2021/05/06 16:11:29;;;;;;;1.70;1.15;;;25.50;73.90;;;;;;6338400;22;20009;-78
2021/05/06 16:13:55;;;;;;;5.87;1.67;;;25.30;74.80;;;;;;6338540;22;20388;-79
2021/05/06 16:16:21;;;;;;;2.93;1.60;;;24.90;75.30;;;;;;6338336;22;20228;-81
2021/05/06 16:18:48;;;;;;;5.38;1.55;;;24.70;75.90;;;;;;6338416;22;20240;-80
2021/05/06 16:21:14;;;;;;;3.47;1.55;;;24.60;76.80;;;;;;6338381;22;20003;-82
2021/05/06 16:23:41;;;;;;;2.03;1.17;;;24.70;76.60;;;;;;6338152;22;20011;-80
2021/05/06 16:26:09;;;;;;;4.68;1.55;;;24.60;74.70;;;;;;6338128;22;19998;-78